createdAt,value
2022-08-09T00:00:21.187Z,24.80
2022-08-09T00:02:51.884Z,24.70
2022-08-09T00:06:15.395Z,24.80
2022-08-09T00:08:32.102Z,24.90
2022-08-09T00:11:06.046Z,24.90
2022-08-09T00:13:55.779Z,25.00
2022-08-09T00:16:36.664Z,24.90
2022-08-09T00:19:10.368Z,24.90
2022-08-09T00:21:55.635Z,24.90
2022-08-09T00:24:28.410Z,24.90
2022-08-09T00:26:59.806Z,25.00
2022-08-09T00:29:39.934Z,25.00
2022-08-09T00:32:35.799Z,25.00
2022-08-09T00:35:07.613Z,25.10
2022-08-09T00:37:38.235Z,25.10
2022-08-09T00:40:16.390Z,25.20
2022-08-09T00:44:27.383Z,25.30
2022-08-09T00:45:38.866Z,25.30
2022-08-09T00:48:21.341Z,25.30
2022-08-09T00:50:53.215Z,25.40
2022-08-09T00:53:24.659Z,25.30
2022-08-09T00:56:04.059Z,25.30
2022-08-09T00:58:39.876Z,25.40
2022-08-09T01:01:23.589Z,25.40
2022-08-09T01:04:05.658Z,25.40
2022-08-09T01:07:37.740Z,25.40
2022-08-09T01:10:31.579Z,25.40
2022-08-09T01:13:41.789Z,25.40
2022-08-09T01:16:27.262Z,25.40
2022-08-09T01:19:05.159Z,25.50
2022-08-09T01:21:45.053Z,25.60
2022-08-09T01:24:34.029Z,25.70
2022-08-09T01:27:13.328Z,25.80
2022-08-09T01:30:03.503Z,26.10
2022-08-09T01:32:45.515Z,26.50
2022-08-09T01:35:37.284Z,26.90
2022-08-09T01:38:17.838Z,27.20
2022-08-09T01:41:25.853Z,27.70
2022-08-09T01:43:59.067Z,28.00
2022-08-09T01:46:42.863Z,28.30
2022-08-09T01:49:24.086Z,28.50
2022-08-09T01:52:08.110Z,28.80
2022-08-09T01:54:53.099Z,28.90
2022-08-09T01:57:45.932Z,28.90
2022-08-09T02:00:35.774Z,28.90
2022-08-09T02:03:10.677Z,29.00
2022-08-09T02:06:03.586Z,29.20
2022-08-09T02:08:57.725Z,29.20
2022-08-09T02:11:42.869Z,29.40
2022-08-09T02:14:26.585Z,29.50
2022-08-09T02:17:29.365Z,29.70
2022-08-09T02:19:51.445Z,29.70
2022-08-09T02:22:49.701Z,29.70
2022-08-09T02:25:24.064Z,29.80
2022-08-09T02:28:24.262Z,29.70
2022-08-09T02:31:01.583Z,29.50
2022-08-09T02:33:58.361Z,29.20
2022-08-09T02:36:44.078Z,29.20
2022-08-09T02:39:33.390Z,29.20
2022-08-09T02:42:29.485Z,29.40
2022-08-09T02:45:10.550Z,29.60
2022-08-09T02:47:57.771Z,29.70
2022-08-09T02:50:44.570Z,29.80
2022-08-09T02:53:34.349Z,30.00
2022-08-09T02:56:06.895Z,30.10
2022-08-09T02:58:38.801Z,30.20
2022-08-09T03:01:15.166Z,30.30
2022-08-09T03:04:17.660Z,30.20
2022-08-09T03:06:48.857Z,30.10
2022-08-09T03:09:22.379Z,30.20
2022-08-09T03:12:09.780Z,30.20
2022-08-09T03:14:43.953Z,30.10
2022-08-09T03:17:26.367Z,29.80
2022-08-09T03:20:10.708Z,29.90
2022-08-09T03:25:57.870Z,30.10
2022-08-09T03:28:30.964Z,30.10
2022-08-09T03:31:06.572Z,30.20
2022-08-09T03:33:53.399Z,30.30
2022-08-09T03:36:27.784Z,30.20
2022-08-09T03:38:59.255Z,30.00
2022-08-09T03:41:45.772Z,29.90
2022-08-09T03:44:18.589Z,29.90
2022-08-09T03:46:50.497Z,29.80
2022-08-09T03:49:24.050Z,29.80
2022-08-09T03:52:03.480Z,29.90
2022-08-09T03:54:40.126Z,30.00
2022-08-09T03:57:20.268Z,30.30
2022-08-09T04:00:00.473Z,30.40
2022-08-09T04:02:34.614Z,30.50
2022-08-09T04:05:17.103Z,30.40
2022-08-09T04:07:57.921Z,30.20
2022-08-09T04:10:30.437Z,30.20
2022-08-09T04:13:11.797Z,30.30
2022-08-09T04:16:20.292Z,30.40
2022-08-09T04:18:32.869Z,30.50
2022-08-09T04:21:03.996Z,30.70
2022-08-09T04:23:34.388Z,30.80
2022-08-09T04:26:04.786Z,30.70
2022-08-09T04:28:36.570Z,30.70
2022-08-09T04:31:13.395Z,30.70
2022-08-09T04:33:52.157Z,30.90
2022-08-09T04:36:29.445Z,30.90
2022-08-09T04:39:05.650Z,31.00
2022-08-09T04:41:43.471Z,30.80
2022-08-09T04:44:14.964Z,30.80
2022-08-09T04:46:58.287Z,30.90
2022-08-09T04:49:53.577Z,31.00
2022-08-09T04:52:27.840Z,31.00
2022-08-09T04:55:00.017Z,31.00
2022-08-09T04:57:54.176Z,31.20
2022-08-09T05:00:23.923Z,31.20
2022-08-09T05:02:54.513Z,31.30
2022-08-09T05:05:31.769Z,31.40
2022-08-09T05:08:16.321Z,31.50
2022-08-09T05:10:47.975Z,31.60
2022-08-09T05:13:18.751Z,31.70
2022-08-09T05:15:52.309Z,31.70
2022-08-09T05:18:42.788Z,31.70
2022-08-09T05:21:24.875Z,31.60
2022-08-09T05:24:02.367Z,31.70
2022-08-09T05:26:37.145Z,31.70
2022-08-09T05:29:22.696Z,31.70
2022-08-09T05:31:58.581Z,31.90
2022-08-09T05:34:33.467Z,31.80
2022-08-09T05:37:07.252Z,31.80
2022-08-09T05:39:44.537Z,31.90
2022-08-09T05:42:17.854Z,32.00
2022-08-09T05:45:04.529Z,32.00
2022-08-09T05:47:35.937Z,32.20
2022-08-09T05:50:35.145Z,32.00
2022-08-09T05:53:31.748Z,32.20
2022-08-09T05:56:02.208Z,32.10
2022-08-09T05:58:32.903Z,32.00
2022-08-09T06:01:03.302Z,32.00
2022-08-09T06:03:34.727Z,32.00
2022-08-09T06:06:14.355Z,32.00
2022-08-09T06:08:44.778Z,32.10
2022-08-09T06:11:40.546Z,32.20
2022-08-09T06:14:11.976Z,32.30
2022-08-09T06:16:42.486Z,32.40
2022-08-09T06:19:22.773Z,32.40
2022-08-09T06:21:58.398Z,32.50
2022-08-09T06:24:30.051Z,32.40
2022-08-09T06:27:01.639Z,32.30
2022-08-09T06:29:32.237Z,32.30
2022-08-09T06:32:53.509Z,32.20
2022-08-09T06:35:09.685Z,32.20
2022-08-09T06:38:05.379Z,32.20
2022-08-09T06:40:42.280Z,32.30
2022-08-09T06:43:15.483Z,32.00
2022-08-09T06:46:05.040Z,32.00
2022-08-09T06:48:36.915Z,32.10
2022-08-09T06:51:14.818Z,32.20
2022-08-09T06:53:47.075Z,32.00
2022-08-09T06:56:20.482Z,31.90
2022-08-09T07:00:55.528Z,31.80
2022-08-09T07:01:54.041Z,31.80
2022-08-09T07:04:28.428Z,31.80
2022-08-09T07:06:59.883Z,31.80
2022-08-09T07:09:56.050Z,31.80
2022-08-09T07:12:22.645Z,31.70
2022-08-09T07:16:36.738Z,31.70
2022-08-09T07:18:03.267Z,31.80
2022-08-09T07:20:33.930Z,32.00
2022-08-09T07:23:18.279Z,32.20
2022-08-09T07:25:52.626Z,32.50
2022-08-09T07:28:34.845Z,32.60
2022-08-09T07:31:07.077Z,32.60
2022-08-09T07:33:53.081Z,32.40
2022-08-09T07:36:26.247Z,32.50
2022-08-09T07:39:01.025Z,32.60
2022-08-09T07:41:33.024Z,32.50
2022-08-09T07:44:09.335Z,32.60
2022-08-09T07:46:42.348Z,32.70
2022-08-09T07:49:15.355Z,32.80
2022-08-09T07:52:05.548Z,33.00
2022-08-09T07:54:36.528Z,32.90
2022-08-09T07:57:11.830Z,32.90
2022-08-09T07:59:51.993Z,32.70
2022-08-09T08:02:29.701Z,32.60
2022-08-09T08:05:00.397Z,32.70
2022-08-09T08:08:44.698Z,32.90
2022-08-09T08:10:22.638Z,33.20
2022-08-09T08:12:57.844Z,33.20
2022-08-09T08:15:28.510Z,33.00
2022-08-09T08:17:59.202Z,32.80
2022-08-09T08:20:33.656Z,32.60
2022-08-09T08:23:15.956Z,32.50
2022-08-09T08:25:50.226Z,32.50
2022-08-09T08:28:36.938Z,32.50
2022-08-09T08:31:14.861Z,32.50
2022-08-09T08:33:52.314Z,32.50
2022-08-09T08:36:29.579Z,32.50
2022-08-09T08:39:02.871Z,32.40
2022-08-09T08:41:50.606Z,32.40
2022-08-09T08:44:28.934Z,32.40
2022-08-09T08:47:04.440Z,32.40
2022-08-09T08:49:48.599Z,32.50
2022-08-09T08:55:15.359Z,32.90
2022-08-09T08:57:56.420Z,32.90
2022-08-09T09:00:34.194Z,33.10
2022-08-09T09:03:11.233Z,33.20
2022-08-09T09:05:58.743Z,33.30
2022-08-09T09:08:40.428Z,33.40
2022-08-09T09:11:19.804Z,33.50
2022-08-09T09:13:57.451Z,33.60
2022-08-09T09:16:34.508Z,33.50
2022-08-09T09:19:40.795Z,33.30
2022-08-09T09:22:16.320Z,33.30
2022-08-09T09:24:53.181Z,33.20
2022-08-09T09:28:06.448Z,33.10
2022-08-09T09:30:40.097Z,33.00
2022-08-09T09:33:17.269Z,33.10
2022-08-09T09:36:19.869Z,33.30
2022-08-09T09:38:59.050Z,33.30
2022-08-09T09:41:33.513Z,33.30
2022-08-09T09:44:34.886Z,33.30
2022-08-09T09:47:21.573Z,33.20
2022-08-09T09:50:15.646Z,33.20
2022-08-09T09:52:58.362Z,33.20
2022-08-09T09:55:33.173Z,33.20
2022-08-09T09:58:17.186Z,33.20
2022-08-09T10:00:55.276Z,33.20
2022-08-09T10:04:08.869Z,33.10
2022-08-09T10:06:51.645Z,33.20
2022-08-09T10:09:27.079Z,33.20
2022-08-09T10:12:14.355Z,33.10
2022-08-09T10:14:53.195Z,33.10
2022-08-09T10:17:50.992Z,32.80
2022-08-09T10:20:27.824Z,32.90
2022-08-09T10:23:20.452Z,32.90
2022-08-09T10:26:06.375Z,32.80
2022-08-09T10:28:41.144Z,32.90
2022-08-09T10:34:10.634Z,32.90
2022-08-09T10:36:59.824Z,32.90
2022-08-09T11:14:37.877Z,32.10
2022-08-09T11:17:28.321Z,31.90
2022-08-09T11:20:22.506Z,31.80
2022-08-09T11:22:56.782Z,31.70
2022-08-09T11:25:36.125Z,31.60
2022-08-09T11:28:38.709Z,31.60
2022-08-09T11:31:48.791Z,31.80
2022-08-09T11:34:51.601Z,31.90
2022-08-09T11:37:40.609Z,31.90
2022-08-09T11:40:17.830Z,32.00
2022-08-09T11:42:54.830Z,31.90
2022-08-09T11:45:42.998Z,31.80
2022-08-09T11:48:24.969Z,31.90
2022-08-09T11:52:57.121Z,31.80
2022-08-09T11:54:29.032Z,31.80
2022-08-09T11:57:47.093Z,31.80
2022-08-09T12:00:16.275Z,31.80
2022-08-09T12:02:52.592Z,31.60
2022-08-09T12:05:24.811Z,31.60
2022-08-09T12:07:56.739Z,31.40
2022-08-09T12:10:38.763Z,31.30
2022-08-09T12:14:07.133Z,31.30
2022-08-09T12:16:18.778Z,31.20
2022-08-09T12:19:01.934Z,31.10
2022-08-09T12:21:38.418Z,31.10
2022-08-09T12:24:11.664Z,31.00
2022-08-09T12:29:10.360Z,30.90
2022-08-09T12:29:44.751Z,30.70
2022-08-09T12:32:30.413Z,30.60
2022-08-09T12:35:10.825Z,30.40
2022-08-09T12:37:50.528Z,30.30
2022-08-09T12:40:24.756Z,30.30
2022-08-09T12:42:56.277Z,30.20
2022-08-09T12:45:33.451Z,30.20
2022-08-09T12:48:19.834Z,29.80
2022-08-09T12:51:03.838Z,29.80
2022-08-09T12:53:44.623Z,29.80
2022-08-09T12:56:39.211Z,29.80
2022-08-09T12:59:14.481Z,29.80
2022-08-09T13:01:51.139Z,29.80
2022-08-09T13:04:36.107Z,29.80
2022-08-09T13:07:19.899Z,29.80
2022-08-09T13:10:07.990Z,29.80
2022-08-09T13:13:09.781Z,29.80
2022-08-09T13:16:04.325Z,29.60
2022-08-09T13:18:56.060Z,29.40
2022-08-09T13:22:37.482Z,29.40
2022-08-09T13:24:33.224Z,29.40
2022-08-09T13:27:39.687Z,29.40
2022-08-09T13:30:50.194Z,29.10
2022-08-09T13:33:51.687Z,29.10
2022-08-09T13:36:37.502Z,29.20
2022-08-09T13:41:17.537Z,29.30
2022-08-09T13:42:03.294Z,29.30
2022-08-09T13:44:35.076Z,29.20
2022-08-09T13:47:29.586Z,29.10
2022-08-09T13:50:00.912Z,29.00
2022-08-09T13:52:36.170Z,29.00
2022-08-09T13:55:13.688Z,29.00
2022-08-09T13:57:56.324Z,29.00
2022-08-09T14:00:31.213Z,29.10
2022-08-09T14:03:17.081Z,29.00
2022-08-09T14:05:56.640Z,29.10
2022-08-09T14:08:32.950Z,29.10
2022-08-09T14:11:03.500Z,29.10
2022-08-09T14:14:22.450Z,28.90
2022-08-09T14:16:37.804Z,28.60
2022-08-09T14:19:11.328Z,28.70
2022-08-09T14:21:41.727Z,28.70
2022-08-09T14:24:18.673Z,28.60
2022-08-09T14:27:03.183Z,28.50
2022-08-09T14:30:36.256Z,28.50
2022-08-09T14:32:41.549Z,28.40
2022-08-09T14:35:12.646Z,28.40
2022-08-09T14:38:02.799Z,28.40
2022-08-09T14:41:01.130Z,28.40
2022-08-09T14:43:25.696Z,28.50
2022-08-09T14:46:58.976Z,28.50
2022-08-09T14:49:10.588Z,28.60
2022-08-09T14:51:42.184Z,28.50
2022-08-09T14:54:15.055Z,28.40
2022-08-09T14:56:57.923Z,28.30
2022-08-09T14:59:31.986Z,28.10
2022-08-09T15:02:09.031Z,28.10
2022-08-09T15:04:42.892Z,28.00
2022-08-09T15:07:13.784Z,27.80
2022-08-09T15:10:04.635Z,27.80
2022-08-09T15:12:38.783Z,27.80
2022-08-09T15:15:15.820Z,27.90
2022-08-09T15:17:51.528Z,27.80
2022-08-09T15:21:55.665Z,27.70
2022-08-09T15:24:01.407Z,27.60
2022-08-09T15:26:07.455Z,27.60
2022-08-09T15:28:55.097Z,27.60
2022-08-09T15:31:28.463Z,27.50
2022-08-09T15:34:33.506Z,27.40
2022-08-09T15:37:04.340Z,27.50
2022-08-09T15:39:53.238Z,27.40
2022-08-09T15:42:25.650Z,27.50
2022-08-09T15:45:00.306Z,27.50
2022-08-09T15:47:51.546Z,27.40
2022-08-09T15:50:28.875Z,27.40
2022-08-09T15:53:05.981Z,27.20
2022-08-09T15:56:11.066Z,27.30
2022-08-09T15:58:28.022Z,27.20
2022-08-09T16:00:59.218Z,27.10
2022-08-09T16:03:38.782Z,27.20
2022-08-09T16:06:32.414Z,27.10
2022-08-09T16:09:04.986Z,27.10
2022-08-09T16:11:35.883Z,27.20
2022-08-09T16:14:08.570Z,27.20
2022-08-09T16:16:45.749Z,27.20
2022-08-09T16:19:19.686Z,27.20
2022-08-09T16:21:53.791Z,27.20
2022-08-09T16:24:32.865Z,27.30
2022-08-09T16:27:05.734Z,27.30
2022-08-09T16:29:49.652Z,27.10
2022-08-09T16:32:34.424Z,26.60
2022-08-09T16:35:07.260Z,26.20
2022-08-09T16:37:55.765Z,25.90
2022-08-09T16:40:40.795Z,25.80
2022-08-09T16:43:12.154Z,25.80
2022-08-09T16:45:45.307Z,25.70
2022-08-09T16:48:40.667Z,25.70
2022-08-09T16:51:08.406Z,25.80
2022-08-09T16:54:02.489Z,25.80
2022-08-09T16:56:31.593Z,25.80
2022-08-09T16:59:06.746Z,25.80
2022-08-09T17:01:43.877Z,25.70
2022-08-09T17:04:25.640Z,25.80
2022-08-09T17:08:43.877Z,25.70
2022-08-09T17:09:53.604Z,25.70
2022-08-09T17:12:32.941Z,25.70
2022-08-09T17:15:30.739Z,25.70
2022-08-09T17:18:00.709Z,25.70
2022-08-09T17:20:36.969Z,25.60
2022-08-09T17:23:14.720Z,25.60
2022-08-09T17:25:53.067Z,25.50
2022-08-09T17:28:23.870Z,25.40
2022-08-09T17:30:54.393Z,25.40
2022-08-09T17:33:25.701Z,25.40
2022-08-09T17:35:58.832Z,25.40
2022-08-09T17:38:37.134Z,25.50
2022-08-09T17:41:09.736Z,25.50
2022-08-09T17:43:40.571Z,25.50
2022-08-09T17:46:11.470Z,25.50
2022-08-09T17:48:51.824Z,25.50
2022-08-09T17:51:23.705Z,25.50
2022-08-09T17:53:55.965Z,25.50
2022-08-09T17:56:32.492Z,25.60
2022-08-09T17:59:09.212Z,25.70
2022-08-09T18:02:07.936Z,25.80
2022-08-09T18:04:31.563Z,25.80
2022-08-09T18:07:07.547Z,25.90
2022-08-09T18:09:41.348Z,26.00
2022-08-09T18:12:19.863Z,25.90
2022-08-09T18:14:55.227Z,25.90
2022-08-09T18:18:02.906Z,25.90
2022-08-09T18:20:54.930Z,25.90
2022-08-09T18:24:11.736Z,25.80
2022-08-09T18:26:00.650Z,25.60
2022-08-09T18:30:40.108Z,25.50
2022-08-09T18:31:32.507Z,25.40
2022-08-09T18:34:14.225Z,25.30
2022-08-09T18:36:49.583Z,25.40
2022-08-09T18:39:20.123Z,25.30
2022-08-09T18:41:53.874Z,25.20
2022-08-09T18:44:26.824Z,25.10
2022-08-09T18:47:08.248Z,25.10
2022-08-09T18:49:46.539Z,25.00
2022-08-09T18:52:28.537Z,24.90
2022-08-09T18:55:13.722Z,24.90
2022-08-09T18:57:46.145Z,24.90
2022-08-09T19:00:20.349Z,24.90
2022-08-09T19:02:53.941Z,24.90
2022-08-09T19:05:28.736Z,24.90
2022-08-09T19:08:18.598Z,25.00
2022-08-09T19:10:50.834Z,25.00
2022-08-09T19:13:38.439Z,25.10
2022-08-09T19:16:20.875Z,25.10
2022-08-09T19:18:51.949Z,25.20
2022-08-09T19:21:51.675Z,25.30
2022-08-09T19:24:32.797Z,25.30
2022-08-09T19:27:04.552Z,25.30
2022-08-09T19:29:38.202Z,25.30
2022-08-09T19:32:29.646Z,25.30
2022-08-09T19:35:02.284Z,25.40
2022-08-09T19:37:41.225Z,25.30
2022-08-09T19:40:23.545Z,25.30
2022-08-09T19:43:05.202Z,25.40
2022-08-09T19:45:40.393Z,25.40
2022-08-09T19:48:13.621Z,25.30
2022-08-09T19:50:51.050Z,25.40
2022-08-09T19:53:26.368Z,25.30
2022-08-09T19:56:02.725Z,25.40
2022-08-09T19:58:36.936Z,25.40
2022-08-09T20:01:08.491Z,25.40
2022-08-09T20:04:11.439Z,25.40
2022-08-09T20:06:33.336Z,25.40
2022-08-09T20:09:03.697Z,25.50
2022-08-09T20:11:45.161Z,25.50
2022-08-09T20:14:22.422Z,25.40
2022-08-09T20:16:54.533Z,25.50
2022-08-09T20:19:48.352Z,25.50
2022-08-09T20:22:16.514Z,25.50
2022-08-09T20:24:53.745Z,25.50
2022-08-09T20:27:25.064Z,25.50
2022-08-09T20:30:00.850Z,25.50
2022-08-09T20:32:33.701Z,25.50
2022-08-09T20:35:05.701Z,25.50
2022-08-09T20:38:20.616Z,25.50
2022-08-09T20:40:28.353Z,25.40
2022-08-09T20:43:18.644Z,25.50
2022-08-09T20:45:59.668Z,25.40
2022-08-09T20:48:33.514Z,25.30
2022-08-09T20:51:04.066Z,25.30
2022-08-09T20:53:38.621Z,25.30
2022-08-09T20:56:20.753Z,25.30
2022-08-09T20:58:59.065Z,25.30
2022-08-09T21:01:34.560Z,25.30
2022-08-09T21:05:54.546Z,25.40
2022-08-09T21:07:14.058Z,25.40
2022-08-09T21:09:56.784Z,25.30
2022-08-09T21:12:33.557Z,25.30
2022-08-09T21:15:05.814Z,25.40
2022-08-09T21:18:21.577Z,25.40
2022-08-09T21:20:35.733Z,25.40
2022-08-09T21:23:09.126Z,25.30
2022-08-09T21:25:59.775Z,25.20
2022-08-09T21:28:36.289Z,25.20
2022-08-09T21:31:17.803Z,25.10
2022-08-09T21:33:53.034Z,25.10
2022-08-09T21:36:28.947Z,25.00
2022-08-09T21:39:04.933Z,24.90
2022-08-09T21:42:05.974Z,24.90
2022-08-09T21:44:34.209Z,25.00
2022-08-09T21:47:10.775Z,25.00
2022-08-09T21:49:51.612Z,24.90
2022-08-09T21:52:23.522Z,24.90
2022-08-09T21:55:04.034Z,24.90
2022-08-09T21:57:58.994Z,24.90
2022-08-09T22:00:32.693Z,24.90
2022-08-09T22:03:19.160Z,24.80
2022-08-09T22:05:51.357Z,24.90
2022-08-09T22:08:23.094Z,24.80
2022-08-09T22:11:48.842Z,24.90
2022-08-09T22:13:47.985Z,24.80
2022-08-09T22:16:20.497Z,24.90
2022-08-09T22:18:54.081Z,24.80
2022-08-09T22:21:50.280Z,24.90
2022-08-09T22:24:24.100Z,24.90
2022-08-09T22:26:56.400Z,24.90
2022-08-09T22:29:34.471Z,24.80
2022-08-09T22:32:29.905Z,24.80
2022-08-09T22:35:05.864Z,24.80
2022-08-09T22:37:40.421Z,24.70
2022-08-09T22:40:20.008Z,24.50
2022-08-09T22:42:50.865Z,24.50
2022-08-09T22:48:16.424Z,24.50
2022-08-09T22:48:34.971Z,24.50
2022-08-09T22:51:01.709Z,24.60
2022-08-09T22:53:58.663Z,24.60
2022-08-09T22:56:33.847Z,24.50
2022-08-09T22:59:55.215Z,24.60
2022-08-09T23:01:56.762Z,24.60
2022-08-09T23:04:27.456Z,24.60
2022-08-09T23:08:21.038Z,24.50
2022-08-09T23:10:11.982Z,24.40
2022-08-09T23:12:42.337Z,24.30
2022-08-09T23:15:13.098Z,24.40
2022-08-09T23:17:43.452Z,24.40
2022-08-09T23:20:14.035Z,24.40
2022-08-09T23:22:44.534Z,24.50
2022-08-09T23:25:15.103Z,24.60
2022-08-09T23:28:00.544Z,24.60
2022-08-09T23:30:36.866Z,24.60
2022-08-09T23:33:07.213Z,24.50
2022-08-09T23:36:04.716Z,24.50
2022-08-09T23:38:28.012Z,24.60
2022-08-09T23:40:58.541Z,24.60
2022-08-09T23:43:28.878Z,24.50
2022-08-09T23:46:38.885Z,24.60
2022-08-09T23:49:08.776Z,24.60
2022-08-09T23:51:39.067Z,24.60
2022-08-09T23:54:09.716Z,24.70
2022-08-09T23:56:54.440Z,24.60
2022-08-09T23:59:26.781Z,24.70
